createdAt,value
2024-03-08T00:01:29.236Z,13.50
2024-03-08T00:03:59.486Z,12.07
2024-03-08T00:06:29.728Z,13.47
2024-03-08T00:09:00.244Z,13.63
2024-03-08T00:11:30.647Z,14.13
2024-03-08T00:14:03.515Z,13.43
2024-03-08T00:16:33.666Z,14.60
2024-03-08T00:19:03.878Z,12.97
2024-03-08T00:21:34.273Z,15.33
2024-03-08T00:24:04.827Z,14.47
2024-03-08T00:26:35.107Z,15.23
2024-03-08T00:29:09.101Z,13.90
2024-03-08T00:31:39.310Z,12.20
2024-03-08T00:34:12.969Z,13.77
2024-03-08T00:36:43.168Z,13.38
2024-03-08T00:39:13.505Z,13.37
2024-03-08T00:41:45.984Z,14.23
2024-03-08T00:44:18.827Z,14.23
2024-03-08T00:46:51.036Z,15.03
2024-03-08T00:49:23.051Z,11.88
2024-03-08T00:51:53.185Z,14.83
2024-03-08T00:54:23.672Z,13.40
2024-03-08T00:56:54.133Z,14.60
2024-03-08T00:59:26.946Z,13.93
2024-03-08T01:01:57.878Z,12.07
2024-03-08T01:04:30.365Z,12.50
2024-03-08T01:07:00.879Z,13.73
2024-03-08T01:09:31.645Z,13.37
2024-03-08T01:12:02.703Z,14.27
2024-03-08T01:14:35.592Z,12.63
2024-03-08T01:17:05.770Z,14.43
2024-03-08T01:19:36.318Z,14.27
2024-03-08T01:22:06.921Z,14.40
2024-03-08T01:24:37.339Z,14.63
2024-03-08T01:27:09.224Z,13.80
2024-03-08T01:29:42.059Z,12.73
2024-03-08T01:32:13.337Z,13.50
2024-03-08T01:34:43.479Z,13.87
2024-03-08T01:37:15.873Z,14.00
2024-03-08T01:39:46.293Z,13.50
2024-03-08T01:42:18.910Z,12.57
2024-03-08T01:44:52.806Z,13.57
2024-03-08T01:47:24.304Z,15.85
2024-03-08T01:49:54.649Z,14.87
2024-03-08T01:52:26.723Z,15.93
2024-03-08T01:54:57.377Z,14.73
2024-03-08T01:57:27.519Z,13.40
2024-03-08T02:00:00.446Z,15.10
2024-03-08T02:02:32.599Z,14.43
2024-03-08T02:05:04.459Z,15.07
2024-03-08T02:07:34.510Z,14.20
2024-03-08T02:10:04.709Z,15.57
2024-03-08T02:15:08.448Z,14.67
2024-03-08T02:17:39.111Z,15.80
2024-03-08T02:20:11.680Z,15.23
2024-03-08T02:22:44.585Z,13.87
2024-03-08T02:25:15.604Z,16.23
2024-03-08T02:27:45.759Z,14.13
2024-03-08T02:30:18.793Z,14.00
2024-03-08T02:32:49.192Z,14.53
2024-03-08T02:35:19.872Z,14.40
2024-03-08T02:37:52.562Z,15.87
2024-03-08T02:40:23.343Z,14.07
2024-03-08T02:42:53.888Z,12.97
2024-03-08T02:45:24.136Z,14.47
2024-03-08T02:47:54.387Z,15.67
2024-03-08T02:50:24.459Z,15.30
2024-03-08T02:52:57.579Z,15.70
2024-03-08T02:55:27.780Z,13.80
2024-03-08T02:57:58.346Z,13.93
2024-03-08T03:00:28.514Z,14.13
2024-03-08T03:02:58.845Z,14.83
2024-03-08T03:05:29.100Z,15.10
2024-03-08T03:08:02.143Z,15.10
2024-03-08T03:10:32.585Z,14.17
2024-03-08T03:13:03.058Z,13.67
2024-03-08T03:15:33.134Z,13.97
2024-03-08T03:18:03.414Z,13.57
2024-03-08T03:20:42.164Z,14.60
2024-03-08T03:23:21.983Z,14.50
2024-03-08T03:25:53.629Z,14.03
2024-03-08T03:28:25.288Z,16.17
2024-03-08T03:30:55.492Z,15.10
2024-03-08T03:33:25.777Z,13.73
2024-03-08T03:35:56.261Z,14.70
2024-03-08T03:38:29.406Z,16.67
2024-03-08T03:41:05.621Z,16.47
2024-03-08T03:43:36.113Z,16.83
2024-03-08T03:46:06.937Z,15.33
2024-03-08T03:48:37.508Z,15.87
2024-03-08T03:51:08.674Z,15.70
2024-03-08T03:53:41.493Z,14.97
2024-03-08T03:56:12.149Z,15.07
2024-03-08T03:58:42.261Z,17.47
2024-03-08T04:01:13.968Z,16.03
2024-03-08T04:03:46.352Z,15.97
2024-03-08T04:06:16.483Z,15.77
2024-03-08T04:08:49.250Z,15.63
2024-03-08T04:11:19.912Z,16.80
2024-03-08T04:13:50.052Z,16.13
2024-03-08T04:16:20.320Z,14.37
2024-03-08T04:18:50.713Z,15.60
2024-03-08T04:21:21.310Z,15.40
2024-03-08T04:23:54.049Z,14.47
2024-03-08T04:26:24.181Z,16.00
2024-03-08T04:28:54.536Z,15.23
2024-03-08T04:31:24.885Z,14.23
2024-03-08T04:33:55.300Z,14.90
2024-03-08T04:36:26.242Z,14.87
2024-03-08T04:38:58.957Z,15.67
2024-03-08T04:41:29.351Z,16.13
2024-03-08T04:43:59.684Z,14.20
2024-03-08T04:46:30.103Z,15.87
2024-03-08T04:49:00.743Z,16.57
2024-03-08T04:51:31.156Z,17.37
2024-03-08T04:54:06.213Z,16.57
2024-03-08T04:56:36.685Z,16.10
2024-03-08T04:59:09.458Z,18.03
2024-03-08T05:01:40.335Z,16.00
2024-03-08T05:04:10.772Z,14.73
2024-03-08T05:06:41.167Z,17.63
2024-03-08T05:09:17.443Z,17.87
2024-03-08T05:11:48.813Z,17.30
2024-03-08T05:14:21.767Z,17.03
2024-03-08T05:16:52.419Z,16.20
2024-03-08T05:19:24.640Z,16.53
2024-03-08T05:21:54.791Z,18.40
2024-03-08T05:24:27.445Z,16.87
2024-03-08T05:26:57.907Z,17.10
2024-03-08T05:29:28.342Z,16.93
2024-03-08T05:31:59.521Z,18.23
2024-03-08T05:34:30.337Z,17.47
2024-03-08T05:37:01.633Z,15.57
2024-03-08T05:39:34.607Z,15.30
2024-03-08T05:42:05.133Z,17.33
2024-03-08T05:44:35.567Z,16.20
2024-03-08T05:47:08.285Z,17.13
2024-03-08T05:49:38.644Z,17.27
2024-03-08T05:52:08.981Z,17.90
2024-03-08T05:54:42.379Z,18.13
2024-03-08T05:57:12.828Z,19.30
2024-03-08T05:59:43.278Z,19.40
2024-03-08T06:02:13.653Z,19.20
2024-03-08T06:04:44.017Z,18.57
2024-03-08T06:07:14.663Z,18.30
2024-03-08T06:09:49.379Z,18.57
2024-03-08T06:12:20.877Z,17.30
2024-03-08T06:14:51.332Z,18.37
2024-03-08T06:17:21.707Z,19.13
2024-03-08T06:19:52.315Z,18.33
2024-03-08T06:22:22.770Z,19.97
2024-03-08T06:24:55.507Z,17.07
2024-03-08T06:27:25.916Z,19.20
2024-03-08T06:29:56.256Z,18.13
2024-03-08T06:32:26.642Z,20.83
2024-03-08T06:34:57.154Z,20.23
2024-03-08T06:37:28.557Z,19.30
2024-03-08T06:40:02.127Z,19.30
2024-03-08T06:42:35.039Z,21.63
2024-03-08T06:45:06.615Z,23.80
2024-03-08T06:47:37.328Z,20.37
2024-03-08T06:50:07.973Z,19.83
2024-03-08T06:52:38.032Z,20.07
2024-03-08T06:55:13.455Z,20.07
2024-03-08T06:57:44.344Z,18.87
2024-03-08T07:00:20.206Z,20.27
2024-03-08T07:02:50.918Z,19.67
2024-03-08T07:05:21.429Z,19.67
2024-03-08T07:07:52.365Z,19.30
2024-03-08T07:10:25.785Z,19.47
2024-03-08T07:12:57.023Z,18.57
2024-03-08T07:15:27.481Z,17.90
2024-03-08T07:17:57.903Z,17.50
2024-03-08T07:20:29.968Z,16.88
2024-03-08T07:23:00.137Z,18.58
2024-03-08T07:25:33.163Z,16.85
2024-03-08T07:28:03.535Z,19.25
2024-03-08T07:30:46.616Z,16.10
2024-03-08T07:33:17.085Z,17.15
2024-03-08T07:35:48.483Z,16.95
2024-03-08T07:38:22.465Z,17.15
2024-03-08T07:40:55.160Z,18.23
2024-03-08T07:43:25.537Z,18.20
2024-03-08T07:45:56.401Z,18.27
2024-03-08T07:48:27.274Z,18.20
2024-03-08T07:50:58.117Z,16.50
2024-03-08T07:53:28.523Z,17.57
2024-03-08T07:56:01.587Z,19.10
2024-03-08T07:58:32.980Z,18.33
2024-03-08T08:01:04.434Z,16.65
2024-03-08T08:03:34.813Z,15.55
2024-03-08T08:06:05.381Z,17.17
2024-03-08T08:08:35.686Z,17.33
2024-03-08T08:11:10.553Z,17.45
2024-03-08T08:13:40.938Z,16.05
2024-03-08T08:16:11.754Z,15.23
2024-03-08T08:18:42.240Z,16.85
2024-03-08T08:21:12.656Z,16.05
2024-03-08T08:23:43.151Z,17.13
2024-03-08T08:26:15.837Z,17.60
2024-03-08T08:28:47.748Z,16.50
2024-03-08T08:31:18.221Z,15.05
2024-03-08T08:33:50.597Z,15.80
2024-03-08T08:36:20.786Z,16.45
2024-03-08T08:38:51.499Z,14.63
2024-03-08T08:41:24.886Z,16.17
2024-03-08T08:44:03.500Z,15.32
2024-03-08T08:46:42.118Z,15.60
2024-03-08T08:49:16.064Z,15.95
2024-03-08T08:51:47.130Z,13.55
2024-03-08T08:54:18.248Z,13.80
2024-03-08T08:56:51.297Z,17.17
2024-03-08T08:59:23.737Z,14.60
2024-03-08T09:01:55.185Z,14.27
2024-03-08T09:04:25.870Z,13.38
2024-03-08T09:06:56.644Z,14.35
2024-03-08T09:09:27.053Z,14.07
2024-03-08T09:11:59.841Z,14.70
2024-03-08T09:14:31.123Z,14.23
2024-03-08T09:17:01.543Z,13.95
2024-03-08T09:19:32.037Z,13.27
2024-03-08T09:22:02.439Z,13.60
2024-03-08T09:24:32.804Z,13.02
2024-03-08T09:27:05.734Z,13.88
2024-03-08T09:29:36.658Z,15.02
2024-03-08T09:32:07.144Z,13.20
2024-03-08T09:34:38.709Z,13.32
2024-03-08T09:37:10.328Z,13.73
2024-03-08T09:39:40.828Z,12.80
2024-03-08T09:42:16.360Z,13.68
2024-03-08T09:44:49.525Z,13.57
2024-03-08T09:47:21.935Z,12.80
2024-03-08T09:49:52.380Z,12.98
2024-03-08T09:52:23.050Z,11.68
2024-03-08T09:54:53.250Z,10.35
2024-03-08T09:57:26.007Z,12.32
2024-03-08T09:59:57.608Z,10.88
2024-03-08T10:02:28.208Z,11.40
2024-03-08T10:04:58.847Z,12.73
2024-03-08T10:07:29.955Z,11.45
2024-03-08T10:10:00.688Z,10.68
2024-03-08T10:12:33.507Z,11.35
2024-03-08T10:15:03.640Z,10.82
2024-03-08T10:17:34.241Z,11.75
2024-03-08T10:20:06.245Z,11.55
2024-03-08T10:22:36.890Z,11.45
2024-03-08T10:25:08.253Z,11.52
2024-03-08T10:27:42.271Z,11.43
2024-03-08T10:30:21.116Z,9.43
2024-03-08T10:32:53.005Z,9.27
2024-03-08T10:35:24.037Z,9.75
2024-03-08T10:37:59.971Z,8.82
2024-03-08T10:40:31.123Z,9.52
2024-03-08T10:43:05.514Z,9.90
2024-03-08T10:45:39.550Z,9.07
2024-03-08T10:48:35.917Z,9.68
2024-03-08T10:51:09.550Z,8.68
2024-03-08T10:53:42.839Z,9.18
2024-03-08T10:56:15.804Z,9.40
2024-03-08T10:58:50.756Z,10.23
2024-03-08T11:01:21.059Z,9.63
2024-03-08T11:03:55.005Z,8.95
2024-03-08T11:06:33.700Z,9.93
2024-03-08T11:09:04.032Z,8.77
2024-03-08T11:11:36.271Z,8.82
2024-03-08T11:14:09.162Z,9.35
2024-03-08T11:16:48.144Z,7.72
2024-03-08T11:19:30.324Z,7.28
2024-03-08T11:22:09.102Z,6.47
2024-03-08T11:24:46.536Z,6.75
2024-03-08T11:27:17.124Z,7.05
2024-03-08T11:30:02.930Z,6.55
2024-03-08T11:32:34.184Z,9.00
2024-03-08T11:35:06.843Z,6.93
2024-03-08T11:37:38.788Z,7.43
2024-03-08T11:40:18.248Z,7.97
2024-03-08T11:42:53.000Z,8.10
2024-03-08T11:45:26.317Z,7.80
2024-03-08T11:47:58.797Z,8.52
2024-03-08T11:50:29.223Z,8.82
2024-03-08T11:53:05.729Z,7.70
2024-03-08T11:55:37.155Z,9.15
2024-03-08T11:58:09.332Z,7.72
2024-03-08T12:00:42.696Z,9.10
2024-03-08T12:03:13.538Z,9.20
2024-03-08T12:05:41.329Z,9.15
2024-03-08T12:08:14.401Z,8.82
2024-03-08T12:10:44.907Z,8.40
2024-03-08T12:13:15.864Z,8.65
2024-03-08T12:15:48.904Z,11.32
2024-03-08T12:18:19.233Z,7.57
2024-03-08T12:20:51.418Z,9.13
2024-03-08T12:23:21.596Z,8.57
2024-03-08T12:25:51.984Z,8.75
2024-03-08T12:28:23.717Z,10.48
2024-03-08T12:30:59.978Z,9.65
2024-03-08T12:33:30.793Z,7.90
2024-03-08T12:36:01.626Z,8.77
2024-03-08T12:38:33.113Z,7.82
2024-03-08T12:41:04.298Z,8.75
2024-03-08T12:43:35.480Z,7.90
2024-03-08T12:46:10.097Z,7.75
2024-03-08T12:48:42.036Z,8.18
2024-03-08T12:51:12.440Z,8.13
2024-03-08T12:53:45.379Z,7.32
2024-03-08T12:56:15.724Z,8.15
2024-03-08T12:58:45.954Z,7.75
2024-03-08T13:01:18.941Z,8.27
2024-03-08T13:03:50.895Z,8.10
2024-03-08T13:06:22.973Z,7.35
2024-03-08T13:08:54.758Z,6.90
2024-03-08T13:11:25.622Z,7.43
2024-03-08T13:13:56.692Z,8.00
2024-03-08T13:16:31.078Z,7.35
2024-03-08T13:19:01.559Z,6.45
2024-03-08T13:21:32.969Z,6.40
2024-03-08T13:24:04.616Z,6.53
2024-03-08T13:26:35.174Z,6.75
2024-03-08T13:29:07.600Z,6.95
2024-03-08T13:31:41.080Z,7.07
2024-03-08T13:34:12.871Z,6.88
2024-03-08T13:36:45.639Z,6.30
2024-03-08T13:39:22.213Z,5.80
2024-03-08T13:41:52.489Z,5.88
2024-03-08T13:44:22.556Z,6.20
2024-03-08T13:46:59.482Z,6.07
2024-03-08T13:49:30.589Z,5.63
2024-03-08T13:52:01.880Z,6.03
2024-03-08T13:54:32.740Z,5.68
2024-03-08T13:57:04.942Z,6.25
2024-03-08T13:59:36.480Z,5.78
2024-03-08T14:02:14.670Z,5.63
2024-03-08T14:04:45.592Z,5.90
2024-03-08T14:07:17.612Z,5.43
2024-03-08T14:09:48.093Z,6.95
2024-03-08T14:12:19.199Z,6.13
2024-03-08T14:14:50.668Z,5.85
2024-03-08T14:17:24.710Z,5.97
2024-03-08T14:19:55.964Z,5.50
2024-03-08T14:22:26.365Z,5.70
2024-03-08T14:24:58.103Z,6.20
2024-03-08T14:27:29.910Z,5.30
2024-03-08T14:30:01.123Z,5.13
2024-03-08T14:32:34.429Z,6.07
2024-03-08T14:35:04.942Z,6.13
2024-03-08T14:37:35.177Z,6.03
2024-03-08T14:40:06.564Z,5.95
2024-03-08T14:42:36.741Z,5.72
2024-03-08T14:45:08.466Z,5.43
2024-03-08T14:47:41.210Z,5.70
2024-03-08T14:50:13.920Z,5.20
2024-03-08T14:52:44.285Z,5.68
2024-03-08T14:55:16.108Z,5.90
2024-03-08T14:57:47.363Z,6.40
2024-03-08T15:00:28.233Z,5.90
2024-03-08T15:03:01.185Z,6.05
2024-03-08T15:05:33.785Z,5.63
2024-03-08T15:08:11.951Z,6.50
2024-03-08T15:10:46.157Z,5.55
2024-03-08T15:13:23.202Z,5.90
2024-03-08T15:15:59.196Z,5.82
2024-03-08T15:18:36.208Z,5.70
2024-03-08T15:21:09.018Z,6.05
2024-03-08T15:23:44.710Z,5.60
2024-03-08T15:26:14.833Z,6.20
2024-03-08T15:28:46.513Z,5.80
2024-03-08T15:31:17.203Z,6.38
2024-03-08T15:33:53.077Z,6.35
2024-03-08T15:36:24.416Z,6.35
2024-03-08T15:38:54.777Z,6.03
2024-03-08T15:41:27.847Z,7.65
2024-03-08T15:44:01.248Z,6.57
2024-03-08T15:46:31.671Z,6.72
2024-03-08T15:49:04.414Z,6.40
2024-03-08T15:51:37.342Z,6.55
2024-03-08T15:56:39.524Z,6.50
2024-03-08T15:59:10.383Z,5.68
2024-03-08T16:01:41.246Z,7.18
2024-03-08T16:04:13.985Z,6.07
2024-03-08T16:06:45.673Z,6.32
2024-03-08T16:09:16.914Z,6.10
2024-03-08T16:11:47.467Z,6.43
2024-03-08T16:14:17.932Z,6.43
2024-03-08T16:16:49.867Z,5.90
2024-03-08T16:19:24.372Z,5.82
2024-03-08T16:21:54.801Z,6.80
2024-03-08T16:24:25.132Z,6.25
2024-03-08T16:26:55.526Z,6.60
2024-03-08T16:29:25.973Z,6.15
2024-03-08T16:31:56.924Z,7.85
2024-03-08T16:34:29.832Z,6.65
2024-03-08T16:37:00.244Z,6.30
2024-03-08T16:39:30.652Z,5.47
2024-03-08T16:42:01.608Z,5.90
2024-03-08T16:44:32.006Z,7.05
2024-03-08T16:47:05.332Z,6.53
2024-03-08T16:49:38.236Z,6.22
2024-03-08T16:52:08.980Z,6.05
2024-03-08T16:54:47.213Z,6.13
2024-03-08T16:57:22.151Z,6.13
2024-03-08T16:59:53.020Z,5.80
2024-03-08T17:02:23.578Z,6.20
2024-03-08T17:04:56.530Z,6.28
2024-03-08T17:07:27.188Z,6.68
2024-03-08T17:09:58.983Z,7.05
2024-03-08T17:12:29.888Z,6.82
2024-03-08T17:15:00.720Z,6.50
2024-03-08T17:17:32.279Z,5.75
2024-03-08T17:20:07.993Z,7.00
2024-03-08T17:22:38.447Z,5.97
2024-03-08T17:25:10.179Z,6.13
2024-03-08T17:27:40.588Z,6.28
2024-03-08T17:30:20.979Z,6.63
2024-03-08T17:32:55.541Z,7.53
2024-03-08T17:35:33.286Z,6.90
2024-03-08T17:38:09.981Z,6.60
2024-03-08T17:40:41.848Z,6.53
2024-03-08T17:43:14.973Z,6.93
2024-03-08T17:45:47.626Z,6.28
2024-03-08T17:48:19.355Z,8.18
2024-03-08T17:50:55.606Z,8.48
2024-03-08T17:53:26.163Z,8.05
2024-03-08T17:55:58.093Z,7.55
2024-03-08T17:58:28.470Z,6.90
2024-03-08T18:00:58.936Z,7.22
2024-03-08T18:03:30.479Z,7.72
2024-03-08T18:06:05.939Z,8.05
2024-03-08T18:08:38.280Z,8.32
2024-03-08T18:11:09.716Z,7.78
2024-03-08T18:13:39.957Z,8.02
2024-03-08T18:16:12.831Z,7.05
2024-03-08T18:18:42.970Z,8.18
2024-03-08T18:21:15.688Z,7.82
2024-03-08T18:23:48.432Z,8.10
2024-03-08T18:26:19.770Z,7.50
2024-03-08T18:28:53.962Z,7.35
2024-03-08T18:31:25.665Z,7.95
2024-03-08T18:33:55.744Z,9.50
2024-03-08T18:36:31.602Z,8.35
2024-03-08T18:39:04.791Z,8.55
2024-03-08T18:41:35.873Z,8.68
2024-03-08T18:44:06.546Z,7.97
2024-03-08T18:46:40.005Z,8.75
2024-03-08T18:49:10.454Z,9.13
2024-03-08T18:51:44.550Z,8.07
2024-03-08T18:54:16.523Z,7.93
2024-03-08T18:56:48.091Z,8.00
2024-03-08T18:59:18.559Z,8.65
2024-03-08T19:01:52.043Z,8.70
2024-03-08T19:04:24.862Z,7.55
2024-03-08T19:06:57.786Z,8.35
2024-03-08T19:09:28.166Z,8.93
2024-03-08T19:11:59.135Z,8.63
2024-03-08T19:14:29.569Z,8.93
2024-03-08T19:17:00.006Z,8.55
2024-03-08T19:19:30.570Z,8.38
2024-03-08T19:22:03.390Z,9.35
2024-03-08T19:24:36.056Z,9.32
2024-03-08T19:27:08.293Z,8.73
2024-03-08T19:29:38.757Z,8.85
2024-03-08T19:32:12.521Z,8.20
2024-03-08T19:34:43.072Z,9.18
2024-03-08T19:37:15.823Z,8.82
2024-03-08T19:39:45.902Z,8.93
2024-03-08T19:42:16.299Z,8.60
2024-03-08T19:44:49.264Z,10.15
2024-03-08T19:47:19.857Z,10.27
2024-03-08T19:49:51.104Z,9.63
2024-03-08T19:52:24.083Z,9.93
2024-03-08T19:54:55.491Z,8.85
2024-03-08T19:57:29.919Z,9.43
2024-03-08T20:02:31.150Z,10.07
2024-03-08T20:05:03.042Z,9.38
2024-03-08T20:07:36.035Z,10.25
2024-03-08T20:10:11.223Z,9.07
2024-03-08T20:12:42.201Z,9.63
2024-03-08T20:15:13.904Z,9.68
2024-03-08T20:17:47.103Z,9.90
2024-03-08T20:20:20.803Z,9.27
2024-03-08T20:22:54.544Z,9.23
2024-03-08T20:25:27.937Z,9.70
2024-03-08T20:28:01.657Z,9.73
2024-03-08T20:30:32.398Z,10.50
2024-03-08T20:33:04.467Z,8.93
2024-03-08T20:35:37.377Z,8.85
2024-03-08T20:38:11.359Z,9.30
2024-03-08T20:40:43.322Z,9.45
2024-03-08T20:43:16.773Z,8.60
2024-03-08T20:45:47.917Z,9.90
2024-03-08T20:48:22.015Z,8.45
2024-03-08T20:50:54.946Z,8.77
2024-03-08T20:53:29.170Z,10.27
2024-03-08T20:55:59.718Z,8.93
2024-03-08T20:58:30.115Z,9.43
2024-03-08T21:01:00.689Z,9.90
2024-03-08T21:03:32.588Z,9.32
2024-03-08T21:06:03.072Z,9.18
2024-03-08T21:08:35.939Z,9.48
2024-03-08T21:11:06.676Z,9.80
2024-03-08T21:13:37.510Z,9.20
2024-03-08T21:16:10.618Z,10.05
2024-03-08T21:18:41.081Z,9.95
2024-03-08T21:21:12.801Z,9.27
2024-03-08T21:23:45.443Z,10.10
2024-03-08T21:26:16.191Z,9.20
2024-03-08T21:28:46.613Z,9.48
2024-03-08T21:31:16.994Z,9.48
2024-03-08T21:33:47.461Z,8.57
2024-03-08T21:36:18.204Z,8.57
2024-03-08T21:38:50.861Z,8.65
2024-03-08T21:41:21.356Z,9.52
2024-03-08T21:43:51.810Z,9.00
2024-03-08T21:46:22.250Z,8.77
2024-03-08T21:48:52.613Z,9.27
2024-03-08T21:51:23.049Z,8.90
2024-03-08T21:53:56.130Z,8.30
2024-03-08T21:56:26.475Z,9.15
2024-03-08T21:58:56.838Z,9.05
2024-03-08T22:01:27.602Z,9.18
2024-03-08T22:03:59.522Z,9.15
2024-03-08T22:06:29.952Z,8.20
2024-03-08T22:09:08.132Z,7.63
2024-03-08T22:11:38.613Z,7.43
2024-03-08T22:14:09.219Z,7.53
2024-03-08T22:16:40.891Z,7.60
2024-03-08T22:19:11.780Z,8.05
2024-03-08T22:21:42.247Z,8.45
2024-03-08T22:24:15.223Z,8.95
2024-03-08T22:26:45.583Z,7.53
2024-03-08T22:29:15.959Z,8.60
2024-03-08T22:31:46.548Z,8.75
2024-03-08T22:34:17.226Z,9.18
2024-03-08T22:36:47.401Z,7.40
2024-03-08T22:39:20.108Z,7.97
2024-03-08T22:41:50.591Z,7.78
2024-03-08T22:44:20.739Z,8.70
2024-03-08T22:46:51.903Z,9.13
2024-03-08T22:49:22.322Z,8.45
2024-03-08T22:51:52.445Z,8.38
2024-03-08T22:54:26.425Z,8.07
2024-03-08T22:56:58.089Z,7.95
2024-03-08T22:59:29.241Z,7.82
2024-03-08T23:01:59.484Z,8.43
2024-03-08T23:04:29.625Z,7.65
2024-03-08T23:06:59.820Z,7.88
2024-03-08T23:09:34.445Z,7.78
2024-03-08T23:12:06.500Z,8.10
2024-03-08T23:14:36.684Z,9.13
2024-03-08T23:17:08.258Z,7.07
2024-03-08T23:19:39.373Z,8.70
2024-03-08T23:22:13.360Z,8.60
2024-03-08T23:24:46.054Z,9.02
2024-03-08T23:27:16.181Z,8.68
2024-03-08T23:29:46.294Z,8.13
2024-03-08T23:32:17.448Z,8.77
2024-03-08T23:34:47.633Z,9.27
2024-03-08T23:37:17.833Z,7.22
2024-03-08T23:39:50.822Z,7.10
2024-03-08T23:42:22.382Z,7.80
2024-03-08T23:44:52.722Z,8.65
2024-03-08T23:47:23.244Z,7.53
2024-03-08T23:49:55.354Z,7.35
2024-03-08T23:52:26.027Z,7.55
2024-03-08T23:54:59.895Z,8.23
2024-03-08T23:57:30.879Z,7.80
